sensor_id;sensor_type;location;lat;lon;timestamp;P1;durP1;ratioP1;P2;durP2;ratioP2
44636;SDS011;30343;0.000;0.000;2022-07-31T00:00:22;6.97;;;3.95;;
44636;SDS011;30343;0.000;0.000;2022-07-31T00:03:07;11.05;;;3.45;;
44636;SDS011;30343;0.000;0.000;2022-07-31T00:05:55;5.88;;;3.50;;
44636;SDS011;30343;0.000;0.000;2022-07-31T00:08:38;4.78;;;3.92;;
44636;SDS011;30343;0.000;0.000;2022-07-31T00:11:22;6.13;;;3.22;;
44636;SDS011;30343;0.000;0.000;2022-07-31T00:14:06;3.97;;;3.17;;
44636;SDS011;30343;0.000;0.000;2022-07-31T00:16:50;6.18;;;3.28;;
44636;SDS011;30343;0.000;0.000;2022-07-31T00:19:34;3.65;;;2.58;;
44636;SDS011;30343;0.000;0.000;2022-07-31T00:22:18;4.60;;;2.90;;
44636;SDS011;30343;0.000;0.000;2022-07-31T00:25:05;5.20;;;2.67;;
44636;SDS011;30343;0.000;0.000;2022-07-31T00:27:52;5.03;;;3.08;;
44636;SDS011;30343;0.000;0.000;2022-07-31T00:30:39;5.20;;;2.55;;
44636;SDS011;30343;0.000;0.000;2022-07-31T00:33:26;2.97;;;2.10;;
44636;SDS011;30343;0.000;0.000;2022-07-31T00:36:12;4.28;;;2.15;;
44636;SDS011;30343;0.000;0.000;2022-07-31T00:38:58;5.00;;;2.88;;
44636;SDS011;30343;0.000;0.000;2022-07-31T00:41:43;6.13;;;3.03;;
44636;SDS011;30343;0.000;0.000;2022-07-31T00:44:28;5.18;;;2.30;;
44636;SDS011;30343;0.000;0.000;2022-07-31T00:47:12;4.85;;;2.47;;
44636;SDS011;30343;0.000;0.000;2022-07-31T00:49:59;3.53;;;1.88;;
44636;SDS011;30343;0.000;0.000;2022-07-31T00:52:43;3.70;;;2.08;;
44636;SDS011;30343;0.000;0.000;2022-07-31T00:55:29;3.70;;;2.03;;
44636;SDS011;30343;0.000;0.000;2022-07-31T00:58:16;3.45;;;2.20;;
44636;SDS011;30343;0.000;0.000;2022-07-31T01:01:03;7.55;;;2.30;;
44636;SDS011;30343;0.000;0.000;2022-07-31T01:03:47;4.30;;;2.03;;
44636;SDS011;30343;0.000;0.000;2022-07-31T01:06:31;5.47;;;2.03;;
44636;SDS011;30343;0.000;0.000;2022-07-31T01:09:20;2.80;;;2.15;;
44636;SDS011;30343;0.000;0.000;2022-07-31T01:15:16;3.45;;;1.63;;
44636;SDS011;30343;0.000;0.000;2022-07-31T01:18:05;2.47;;;1.90;;
44636;SDS011;30343;0.000;0.000;2022-07-31T01:20:51;2.95;;;2.10;;
44636;SDS011;30343;0.000;0.000;2022-07-31T01:26:36;3.15;;;2.03;;
44636;SDS011;30343;0.000;0.000;2022-07-31T01:29:27;3.78;;;2.15;;
44636;SDS011;30343;0.000;0.000;2022-07-31T01:32:15;2.25;;;1.70;;
44636;SDS011;30343;0.000;0.000;2022-07-31T01:35:19;6.03;;;1.95;;
44636;SDS011;30343;0.000;0.000;2022-07-31T01:38:13;8.45;;;2.30;;
44636;SDS011;30343;0.000;0.000;2022-07-31T01:41:06;2.70;;;1.88;;
44636;SDS011;30343;0.000;0.000;2022-07-31T01:43:53;3.63;;;2.10;;
44636;SDS011;30343;0.000;0.000;2022-07-31T01:46:39;2.97;;;1.90;;
44636;SDS011;30343;0.000;0.000;2022-07-31T01:49:27;4.68;;;2.55;;
44636;SDS011;30343;0.000;0.000;2022-07-31T01:52:16;3.25;;;2.30;;
44636;SDS011;30343;0.000;0.000;2022-07-31T01:55:03;3.42;;;2.13;;
44636;SDS011;30343;0.000;0.000;2022-07-31T01:57:47;5.22;;;2.05;;
44636;SDS011;30343;0.000;0.000;2022-07-31T02:00:37;4.28;;;2.10;;
44636;SDS011;30343;0.000;0.000;2022-07-31T02:03:23;4.47;;;1.88;;
44636;SDS011;30343;0.000;0.000;2022-07-31T02:06:09;3.85;;;2.25;;
44636;SDS011;30343;0.000;0.000;2022-07-31T02:08:55;4.15;;;1.90;;
44636;SDS011;30343;0.000;0.000;2022-07-31T02:11:42;2.75;;;2.10;;
44636;SDS011;30343;0.000;0.000;2022-07-31T02:14:30;5.78;;;2.20;;
44636;SDS011;30343;0.000;0.000;2022-07-31T02:17:15;3.30;;;2.20;;
44636;SDS011;30343;0.000;0.000;2022-07-31T02:20:02;3.45;;;2.10;;
44636;SDS011;30343;0.000;0.000;2022-07-31T02:22:48;3.38;;;2.20;;
44636;SDS011;30343;0.000;0.000;2022-07-31T02:25:35;3.05;;;2.20;;
44636;SDS011;30343;0.000;0.000;2022-07-31T02:28:20;2.17;;;1.80;;
44636;SDS011;30343;0.000;0.000;2022-07-31T02:31:05;4.53;;;2.10;;
44636;SDS011;30343;0.000;0.000;2022-07-31T02:33:54;6.10;;;1.90;;
44636;SDS011;30343;0.000;0.000;2022-07-31T02:36:38;3.65;;;2.22;;
44636;SDS011;30343;0.000;0.000;2022-07-31T02:39:23;5.03;;;1.75;;
44636;SDS011;30343;0.000;0.000;2022-07-31T02:42:10;2.92;;;2.00;;
44636;SDS011;30343;0.000;0.000;2022-07-31T02:44:54;3.47;;;2.05;;
44636;SDS011;30343;0.000;0.000;2022-07-31T02:47:39;4.35;;;1.83;;
44636;SDS011;30343;0.000;0.000;2022-07-31T02:50:27;4.43;;;2.15;;
44636;SDS011;30343;0.000;0.000;2022-07-31T02:53:17;5.00;;;2.15;;
44636;SDS011;30343;0.000;0.000;2022-07-31T02:56:02;4.60;;;2.30;;
44636;SDS011;30343;0.000;0.000;2022-07-31T02:58:52;3.17;;;2.42;;
44636;SDS011;30343;0.000;0.000;2022-07-31T03:01:36;2.22;;;1.95;;
44636;SDS011;30343;0.000;0.000;2022-07-31T03:04:22;3.65;;;1.90;;
44636;SDS011;30343;0.000;0.000;2022-07-31T03:07:06;3.20;;;2.20;;
44636;SDS011;30343;0.000;0.000;2022-07-31T03:09:53;4.07;;;2.22;;
44636;SDS011;30343;0.000;0.000;2022-07-31T03:12:41;4.22;;;2.33;;
44636;SDS011;30343;0.000;0.000;2022-07-31T03:15:27;4.07;;;2.50;;
44636;SDS011;30343;0.000;0.000;2022-07-31T03:18:12;5.15;;;2.30;;
44636;SDS011;30343;0.000;0.000;2022-07-31T03:21:01;4.00;;;2.30;;
44636;SDS011;30343;0.000;0.000;2022-07-31T03:23:45;3.33;;;2.35;;
44636;SDS011;30343;0.000;0.000;2022-07-31T03:26:30;3.60;;;2.25;;
44636;SDS011;30343;0.000;0.000;2022-07-31T03:29:14;7.70;;;2.45;;
44636;SDS011;30343;0.000;0.000;2022-07-31T03:31:59;5.78;;;2.58;;
44636;SDS011;30343;0.000;0.000;2022-07-31T03:34:43;4.72;;;1.90;;
44636;SDS011;30343;0.000;0.000;2022-07-31T03:37:27;4.85;;;2.97;;
44636;SDS011;30343;0.000;0.000;2022-07-31T03:40:11;2.88;;;2.35;;
44636;SDS011;30343;0.000;0.000;2022-07-31T03:42:55;2.83;;;1.90;;
44636;SDS011;30343;0.000;0.000;2022-07-31T03:45:43;2.97;;;2.20;;
44636;SDS011;30343;0.000;0.000;2022-07-31T03:48:29;3.67;;;2.25;;
44636;SDS011;30343;0.000;0.000;2022-07-31T03:51:16;4.85;;;2.35;;
44636;SDS011;30343;0.000;0.000;2022-07-31T03:54:01;5.28;;;2.63;;
44636;SDS011;30343;0.000;0.000;2022-07-31T03:56:49;3.97;;;2.30;;
44636;SDS011;30343;0.000;0.000;2022-07-31T03:59:35;2.85;;;2.30;;
44636;SDS011;30343;0.000;0.000;2022-07-31T04:02:19;5.57;;;2.28;;
44636;SDS011;30343;0.000;0.000;2022-07-31T04:05:03;6.38;;;2.45;;
44636;SDS011;30343;0.000;0.000;2022-07-31T04:07:52;8.05;;;2.42;;
44636;SDS011;30343;0.000;0.000;2022-07-31T04:10:39;4.82;;;2.20;;
44636;SDS011;30343;0.000;0.000;2022-07-31T04:13:23;4.13;;;2.20;;
44636;SDS011;30343;0.000;0.000;2022-07-31T04:16:09;5.13;;;2.53;;
44636;SDS011;30343;0.000;0.000;2022-07-31T04:18:53;4.93;;;2.58;;
44636;SDS011;30343;0.000;0.000;2022-07-31T04:21:37;7.30;;;2.58;;
44636;SDS011;30343;0.000;0.000;2022-07-31T04:24:21;3.95;;;2.35;;
44636;SDS011;30343;0.000;0.000;2022-07-31T04:27:05;4.18;;;2.20;;
44636;SDS011;30343;0.000;0.000;2022-07-31T04:29:51;3.42;;;2.30;;
44636;SDS011;30343;0.000;0.000;2022-07-31T04:32:35;5.03;;;2.97;;
44636;SDS011;30343;0.000;0.000;2022-07-31T04:35:24;4.85;;;2.60;;
44636;SDS011;30343;0.000;0.000;2022-07-31T04:38:08;4.55;;;2.75;;
44636;SDS011;30343;0.000;0.000;2022-07-31T04:40:55;3.58;;;2.65;;
44636;SDS011;30343;0.000;0.000;2022-07-31T04:43:39;3.35;;;2.30;;
44636;SDS011;30343;0.000;0.000;2022-07-31T04:46:23;3.78;;;2.30;;
44636;SDS011;30343;0.000;0.000;2022-07-31T04:49:07;3.38;;;2.70;;
44636;SDS011;30343;0.000;0.000;2022-07-31T04:51:51;2.97;;;2.05;;
44636;SDS011;30343;0.000;0.000;2022-07-31T04:54:38;3.35;;;2.40;;
44636;SDS011;30343;0.000;0.000;2022-07-31T04:57:24;2.90;;;2.50;;
44636;SDS011;30343;0.000;0.000;2022-07-31T05:00:08;5.40;;;2.75;;
44636;SDS011;30343;0.000;0.000;2022-07-31T05:02:53;5.00;;;2.28;;
44636;SDS011;30343;0.000;0.000;2022-07-31T05:05:36;3.17;;;2.20;;
44636;SDS011;30343;0.000;0.000;2022-07-31T05:08:25;5.00;;;2.47;;
44636;SDS011;30343;0.000;0.000;2022-07-31T05:11:11;4.43;;;2.50;;
44636;SDS011;30343;0.000;0.000;2022-07-31T05:14:08;4.18;;;2.20;;
44636;SDS011;30343;0.000;0.000;2022-07-31T05:16:56;4.18;;;2.45;;
44636;SDS011;30343;0.000;0.000;2022-07-31T05:19:40;9.07;;;2.55;;
44636;SDS011;30343;0.000;0.000;2022-07-31T05:22:24;3.75;;;2.22;;
44636;SDS011;30343;0.000;0.000;2022-07-31T05:25:07;4.13;;;2.40;;
44636;SDS011;30343;0.000;0.000;2022-07-31T05:27:54;3.42;;;2.28;;
44636;SDS011;30343;0.000;0.000;2022-07-31T05:30:38;6.72;;;2.85;;
44636;SDS011;30343;0.000;0.000;2022-07-31T05:33:25;3.85;;;2.17;;
44636;SDS011;30343;0.000;0.000;2022-07-31T05:36:10;2.95;;;2.10;;
44636;SDS011;30343;0.000;0.000;2022-07-31T05:38:55;6.75;;;2.40;;
44636;SDS011;30343;0.000;0.000;2022-07-31T05:41:39;6.05;;;2.58;;
44636;SDS011;30343;0.000;0.000;2022-07-31T05:44:25;4.88;;;2.30;;
44636;SDS011;30343;0.000;0.000;2022-07-31T05:47:12;3.50;;;2.25;;
44636;SDS011;30343;0.000;0.000;2022-07-31T05:49:56;3.75;;;2.47;;
44636;SDS011;30343;0.000;0.000;2022-07-31T05:52:47;3.00;;;2.10;;
44636;SDS011;30343;0.000;0.000;2022-07-31T05:55:34;3.05;;;2.25;;
44636;SDS011;30343;0.000;0.000;2022-07-31T05:58:18;3.13;;;1.85;;
44636;SDS011;30343;0.000;0.000;2022-07-31T06:01:05;3.80;;;2.05;;
44636;SDS011;30343;0.000;0.000;2022-07-31T06:03:52;3.70;;;2.00;;
44636;SDS011;30343;0.000;0.000;2022-07-31T06:06:38;2.70;;;2.03;;
44636;SDS011;30343;0.000;0.000;2022-07-31T06:09:28;3.30;;;2.20;;
44636;SDS011;30343;0.000;0.000;2022-07-31T06:12:11;2.55;;;2.17;;
44636;SDS011;30343;0.000;0.000;2022-07-31T06:14:56;2.78;;;2.28;;
44636;SDS011;30343;0.000;0.000;2022-07-31T06:17:44;4.25;;;2.15;;
44636;SDS011;30343;0.000;0.000;2022-07-31T06:20:32;2.22;;;1.90;;
44636;SDS011;30343;0.000;0.000;2022-07-31T06:23:17;3.42;;;2.28;;
44636;SDS011;30343;0.000;0.000;2022-07-31T06:26:06;2.28;;;1.90;;
44636;SDS011;30343;0.000;0.000;2022-07-31T06:28:50;2.97;;;2.20;;
44636;SDS011;30343;0.000;0.000;2022-07-31T06:31:37;3.78;;;2.28;;
44636;SDS011;30343;0.000;0.000;2022-07-31T06:34:24;8.20;;;2.25;;
44636;SDS011;30343;0.000;0.000;2022-07-31T06:37:10;3.47;;;1.92;;
44636;SDS011;30343;0.000;0.000;2022-07-31T06:39:57;2.97;;;2.08;;
44636;SDS011;30343;0.000;0.000;2022-07-31T06:42:46;4.95;;;2.25;;
44636;SDS011;30343;0.000;0.000;2022-07-31T06:45:33;3.58;;;2.30;;
44636;SDS011;30343;0.000;0.000;2022-07-31T06:48:19;5.32;;;2.63;;
44636;SDS011;30343;0.000;0.000;2022-07-31T06:51:03;10.45;;;3.05;;
44636;SDS011;30343;0.000;0.000;2022-07-31T06:53:50;3.22;;;2.03;;
44636;SDS011;30343;0.000;0.000;2022-07-31T06:56:35;4.78;;;2.30;;
44636;SDS011;30343;0.000;0.000;2022-07-31T06:59:24;15.35;;;2.97;;
44636;SDS011;30343;0.000;0.000;2022-07-31T07:02:14;3.67;;;2.35;;
44636;SDS011;30343;0.000;0.000;2022-07-31T07:05:00;3.28;;;2.10;;
44636;SDS011;30343;0.000;0.000;2022-07-31T07:07:43;3.15;;;2.53;;
44636;SDS011;30343;0.000;0.000;2022-07-31T07:10:30;4.47;;;2.58;;
44636;SDS011;30343;0.000;0.000;2022-07-31T07:13:17;4.78;;;2.30;;
44636;SDS011;30343;0.000;0.000;2022-07-31T07:16:09;4.10;;;2.05;;
44636;SDS011;30343;0.000;0.000;2022-07-31T07:18:52;2.75;;;2.20;;
44636;SDS011;30343;0.000;0.000;2022-07-31T07:21:42;4.07;;;2.25;;
44636;SDS011;30343;0.000;0.000;2022-07-31T07:24:29;5.40;;;2.45;;
44636;SDS011;30343;0.000;0.000;2022-07-31T07:27:15;4.65;;;2.53;;
44636;SDS011;30343;0.000;0.000;2022-07-31T07:30:02;3.40;;;2.63;;
44636;SDS011;30343;0.000;0.000;2022-07-31T07:32:47;3.53;;;2.47;;
44636;SDS011;30343;0.000;0.000;2022-07-31T07:35:33;5.53;;;3.17;;
44636;SDS011;30343;0.000;0.000;2022-07-31T07:38:22;3.95;;;2.63;;
44636;SDS011;30343;0.000;0.000;2022-07-31T07:41:09;3.67;;;2.90;;
44636;SDS011;30343;0.000;0.000;2022-07-31T07:43:53;3.47;;;3.13;;
44636;SDS011;30343;0.000;0.000;2022-07-31T07:46:40;5.45;;;3.10;;
44636;SDS011;30343;0.000;0.000;2022-07-31T07:49:24;5.13;;;3.22;;
44636;SDS011;30343;0.000;0.000;2022-07-31T07:52:08;3.47;;;2.55;;
44636;SDS011;30343;0.000;0.000;2022-07-31T07:54:52;3.80;;;2.75;;
44636;SDS011;30343;0.000;0.000;2022-07-31T07:57:35;3.10;;;2.80;;
44636;SDS011;30343;0.000;0.000;2022-07-31T08:00:19;3.22;;;2.92;;
44636;SDS011;30343;0.000;0.000;2022-07-31T08:03:04;4.50;;;3.15;;
44636;SDS011;30343;0.000;0.000;2022-07-31T08:05:50;3.17;;;2.88;;
44636;SDS011;30343;0.000;0.000;2022-07-31T08:08:37;3.63;;;2.88;;
44636;SDS011;30343;0.000;0.000;2022-07-31T08:11:21;4.93;;;3.30;;
44636;SDS011;30343;0.000;0.000;2022-07-31T08:14:05;3.88;;;3.00;;
44636;SDS011;30343;0.000;0.000;2022-07-31T08:16:49;3.38;;;3.05;;
44636;SDS011;30343;0.000;0.000;2022-07-31T08:19:32;4.78;;;3.10;;
44636;SDS011;30343;0.000;0.000;2022-07-31T08:22:16;3.55;;;3.17;;
44636;SDS011;30343;0.000;0.000;2022-07-31T08:25:01;4.43;;;2.95;;
44636;SDS011;30343;0.000;0.000;2022-07-31T08:27:46;6.53;;;3.88;;
44636;SDS011;30343;0.000;0.000;2022-07-31T08:30:32;4.20;;;3.25;;
44636;SDS011;30343;0.000;0.000;2022-07-31T08:33:15;4.28;;;3.85;;
44636;SDS011;30343;0.000;0.000;2022-07-31T08:36:02;4.32;;;3.20;;
44636;SDS011;30343;0.000;0.000;2022-07-31T08:38:47;3.95;;;3.53;;
44636;SDS011;30343;0.000;0.000;2022-07-31T08:41:35;4.57;;;3.60;;
44636;SDS011;30343;0.000;0.000;2022-07-31T08:44:21;4.68;;;4.07;;
44636;SDS011;30343;0.000;0.000;2022-07-31T08:47:08;3.88;;;3.47;;
44636;SDS011;30343;0.000;0.000;2022-07-31T08:49:54;6.25;;;3.75;;
44636;SDS011;30343;0.000;0.000;2022-07-31T08:52:43;4.38;;;3.97;;
44636;SDS011;30343;0.000;0.000;2022-07-31T08:55:31;6.75;;;3.78;;
44636;SDS011;30343;0.000;0.000;2022-07-31T08:58:17;5.50;;;3.72;;
44636;SDS011;30343;0.000;0.000;2022-07-31T09:01:02;4.32;;;3.90;;
44636;SDS011;30343;0.000;0.000;2022-07-31T09:03:46;4.30;;;3.90;;
44636;SDS011;30343;0.000;0.000;2022-07-31T09:06:30;4.88;;;4.30;;
44636;SDS011;30343;0.000;0.000;2022-07-31T09:09:14;5.60;;;4.53;;
44636;SDS011;30343;0.000;0.000;2022-07-31T09:12:00;5.88;;;4.50;;
44636;SDS011;30343;0.000;0.000;2022-07-31T09:14:46;4.80;;;4.30;;
44636;SDS011;30343;0.000;0.000;2022-07-31T09:17:34;5.25;;;4.05;;
44636;SDS011;30343;0.000;0.000;2022-07-31T09:20:20;7.28;;;4.03;;
44636;SDS011;30343;0.000;0.000;2022-07-31T09:23:09;5.05;;;4.55;;
44636;SDS011;30343;0.000;0.000;2022-07-31T09:28:47;4.85;;;4.30;;
44636;SDS011;30343;0.000;0.000;2022-07-31T09:31:34;5.57;;;4.57;;
44636;SDS011;30343;0.000;0.000;2022-07-31T09:34:27;4.63;;;4.13;;
44636;SDS011;30343;0.000;0.000;2022-07-31T09:37:12;5.63;;;5.00;;
44636;SDS011;30343;0.000;0.000;2022-07-31T09:40:00;7.93;;;4.75;;
44636;SDS011;30343;0.000;0.000;2022-07-31T09:42:45;4.93;;;4.43;;
44636;SDS011;30343;0.000;0.000;2022-07-31T09:45:30;5.72;;;4.55;;
44636;SDS011;30343;0.000;0.000;2022-07-31T09:48:17;5.75;;;4.53;;
44636;SDS011;30343;0.000;0.000;2022-07-31T09:51:06;5.22;;;4.47;;
44636;SDS011;30343;0.000;0.000;2022-07-31T09:53:53;6.25;;;4.13;;
44636;SDS011;30343;0.000;0.000;2022-07-31T09:56:42;5.15;;;3.60;;
44636;SDS011;30343;0.000;0.000;2022-07-31T09:59:27;5.20;;;3.95;;
44636;SDS011;30343;0.000;0.000;2022-07-31T10:02:13;7.68;;;4.10;;
44636;SDS011;30343;0.000;0.000;2022-07-31T10:05:01;4.43;;;3.90;;
44636;SDS011;30343;0.000;0.000;2022-07-31T10:07:45;7.38;;;4.30;;
44636;SDS011;30343;0.000;0.000;2022-07-31T10:10:30;5.20;;;3.90;;
44636;SDS011;30343;0.000;0.000;2022-07-31T10:13:15;3.97;;;3.58;;
44636;SDS011;30343;0.000;0.000;2022-07-31T10:16:03;5.53;;;3.55;;
44636;SDS011;30343;0.000;0.000;2022-07-31T10:18:52;3.60;;;3.13;;
44636;SDS011;30343;0.000;0.000;2022-07-31T10:21:40;3.35;;;2.72;;
44636;SDS011;30343;0.000;0.000;2022-07-31T10:24:32;4.10;;;3.50;;
44636;SDS011;30343;0.000;0.000;2022-07-31T10:27:22;3.97;;;3.13;;
44636;SDS011;30343;0.000;0.000;2022-07-31T10:30:07;5.03;;;3.60;;
44636;SDS011;30343;0.000;0.000;2022-07-31T10:32:51;4.82;;;3.45;;
44636;SDS011;30343;0.000;0.000;2022-07-31T10:35:43;3.72;;;3.30;;
44636;SDS011;30343;0.000;0.000;2022-07-31T10:41:36;3.65;;;2.83;;
44636;SDS011;30343;0.000;0.000;2022-07-31T10:44:49;3.80;;;3.00;;
44636;SDS011;30343;0.000;0.000;2022-07-31T10:47:52;5.22;;;3.47;;
44636;SDS011;30343;0.000;0.000;2022-07-31T10:50:37;4.63;;;3.10;;
44636;SDS011;30343;0.000;0.000;2022-07-31T10:53:24;4.68;;;3.38;;
44636;SDS011;30343;0.000;0.000;2022-07-31T10:56:08;5.93;;;3.78;;
44636;SDS011;30343;0.000;0.000;2022-07-31T10:58:58;4.72;;;3.15;;
44636;SDS011;30343;0.000;0.000;2022-07-31T11:01:46;4.82;;;3.25;;
44636;SDS011;30343;0.000;0.000;2022-07-31T11:04:30;4.80;;;3.60;;
44636;SDS011;30343;0.000;0.000;2022-07-31T11:07:17;5.57;;;3.13;;
44636;SDS011;30343;0.000;0.000;2022-07-31T11:10:07;7.13;;;3.30;;
44636;SDS011;30343;0.000;0.000;2022-07-31T11:13:03;6.88;;;3.20;;
44636;SDS011;30343;0.000;0.000;2022-07-31T11:15:48;3.80;;;2.78;;
44636;SDS011;30343;0.000;0.000;2022-07-31T11:18:35;5.40;;;3.45;;
44636;SDS011;30343;0.000;0.000;2022-07-31T11:21:27;4.47;;;3.22;;
44636;SDS011;30343;0.000;0.000;2022-07-31T11:24:17;3.78;;;3.17;;
44636;SDS011;30343;0.000;0.000;2022-07-31T11:27:06;5.07;;;3.15;;
44636;SDS011;30343;0.000;0.000;2022-07-31T11:29:50;4.63;;;3.15;;
44636;SDS011;30343;0.000;0.000;2022-07-31T11:32:34;5.60;;;3.33;;
44636;SDS011;30343;0.000;0.000;2022-07-31T11:35:28;4.25;;;3.17;;
44636;SDS011;30343;0.000;0.000;2022-07-31T11:38:13;4.47;;;3.83;;
44636;SDS011;30343;0.000;0.000;2022-07-31T11:40:57;5.15;;;3.22;;
44636;SDS011;30343;0.000;0.000;2022-07-31T11:43:46;3.85;;;3.17;;
44636;SDS011;30343;0.000;0.000;2022-07-31T11:46:32;4.15;;;3.33;;
44636;SDS011;30343;0.000;0.000;2022-07-31T11:49:20;4.65;;;3.40;;
44636;SDS011;30343;0.000;0.000;2022-07-31T11:52:07;3.33;;;2.80;;
44636;SDS011;30343;0.000;0.000;2022-07-31T11:55:01;4.07;;;2.95;;
44636;SDS011;30343;0.000;0.000;2022-07-31T11:57:46;3.25;;;2.85;;
44636;SDS011;30343;0.000;0.000;2022-07-31T12:00:30;6.43;;;2.95;;
44636;SDS011;30343;0.000;0.000;2022-07-31T12:03:19;5.18;;;3.35;;
44636;SDS011;30343;0.000;0.000;2022-07-31T12:06:06;5.13;;;2.95;;
44636;SDS011;30343;0.000;0.000;2022-07-31T12:08:51;7.97;;;3.20;;
44636;SDS011;30343;0.000;0.000;2022-07-31T12:11:35;4.85;;;3.42;;
44636;SDS011;30343;0.000;0.000;2022-07-31T12:14:52;4.57;;;2.53;;
44636;SDS011;30343;0.000;0.000;2022-07-31T12:17:29;5.07;;;3.35;;
44636;SDS011;30343;0.000;0.000;2022-07-31T12:20:16;4.68;;;3.45;;
44636;SDS011;30343;0.000;0.000;2022-07-31T12:23:04;6.43;;;3.50;;
44636;SDS011;30343;0.000;0.000;2022-07-31T12:25:48;8.48;;;3.42;;
44636;SDS011;30343;0.000;0.000;2022-07-31T12:28:38;5.03;;;3.38;;
44636;SDS011;30343;0.000;0.000;2022-07-31T12:31:22;6.40;;;3.40;;
44636;SDS011;30343;0.000;0.000;2022-07-31T12:34:06;5.97;;;3.50;;
44636;SDS011;30343;0.000;0.000;2022-07-31T12:37:00;3.88;;;3.40;;
44636;SDS011;30343;0.000;0.000;2022-07-31T12:42:33;6.82;;;3.42;;
44636;SDS011;30343;0.000;0.000;2022-07-31T12:48:21;6.63;;;3.53;;
44636;SDS011;30343;0.000;0.000;2022-07-31T12:51:05;5.47;;;3.83;;
44636;SDS011;30343;0.000;0.000;2022-07-31T12:53:48;4.93;;;3.60;;
44636;SDS011;30343;0.000;0.000;2022-07-31T12:56:35;5.20;;;3.70;;
44636;SDS011;30343;0.000;0.000;2022-07-31T12:59:20;6.90;;;3.65;;
44636;SDS011;30343;0.000;0.000;2022-07-31T13:02:07;5.75;;;3.33;;
44636;SDS011;30343;0.000;0.000;2022-07-31T13:04:51;3.95;;;2.95;;
44636;SDS011;30343;0.000;0.000;2022-07-31T13:07:35;10.95;;;3.40;;
44636;SDS011;30343;0.000;0.000;2022-07-31T13:10:20;4.18;;;3.40;;
44636;SDS011;30343;0.000;0.000;2022-07-31T13:13:04;3.72;;;3.08;;
44636;SDS011;30343;0.000;0.000;2022-07-31T13:15:48;6.47;;;3.30;;
44636;SDS011;30343;0.000;0.000;2022-07-31T13:18:34;6.80;;;3.42;;
44636;SDS011;30343;0.000;0.000;2022-07-31T13:21:20;6.32;;;3.85;;
44636;SDS011;30343;0.000;0.000;2022-07-31T13:24:09;6.18;;;3.38;;
44636;SDS011;30343;0.000;0.000;2022-07-31T13:26:53;6.13;;;3.42;;
44636;SDS011;30343;0.000;0.000;2022-07-31T13:29:37;5.78;;;3.30;;
44636;SDS011;30343;0.000;0.000;2022-07-31T13:32:21;3.80;;;3.15;;
44636;SDS011;30343;0.000;0.000;2022-07-31T13:35:14;8.73;;;3.90;;
44636;SDS011;30343;0.000;0.000;2022-07-31T13:38:01;3.88;;;3.47;;
44636;SDS011;30343;0.000;0.000;2022-07-31T13:40:45;4.97;;;3.35;;
44636;SDS011;30343;0.000;0.000;2022-07-31T13:43:50;4.57;;;3.40;;
44636;SDS011;30343;0.000;0.000;2022-07-31T13:46:35;4.72;;;3.30;;
44636;SDS011;30343;0.000;0.000;2022-07-31T13:49:19;4.15;;;3.13;;
44636;SDS011;30343;0.000;0.000;2022-07-31T13:52:08;7.15;;;3.67;;
44636;SDS011;30343;0.000;0.000;2022-07-31T13:54:52;5.15;;;3.13;;
44636;SDS011;30343;0.000;0.000;2022-07-31T13:57:36;9.40;;;4.40;;
44636;SDS011;30343;0.000;0.000;2022-07-31T14:00:26;4.60;;;3.10;;
44636;SDS011;30343;0.000;0.000;2022-07-31T14:03:10;4.00;;;3.47;;
44636;SDS011;30343;0.000;0.000;2022-07-31T14:05:56;6.70;;;3.65;;
44636;SDS011;30343;0.000;0.000;2022-07-31T14:08:42;4.82;;;3.17;;
44636;SDS011;30343;0.000;0.000;2022-07-31T14:11:26;5.70;;;3.20;;
44636;SDS011;30343;0.000;0.000;2022-07-31T14:14:13;4.05;;;3.10;;
44636;SDS011;30343;0.000;0.000;2022-07-31T14:16:57;5.65;;;3.47;;
44636;SDS011;30343;0.000;0.000;2022-07-31T14:19:44;6.40;;;3.38;;
44636;SDS011;30343;0.000;0.000;2022-07-31T14:22:31;4.22;;;2.90;;
44636;SDS011;30343;0.000;0.000;2022-07-31T14:25:17;4.53;;;2.83;;
44636;SDS011;30343;0.000;0.000;2022-07-31T14:28:02;4.15;;;3.10;;
44636;SDS011;30343;0.000;0.000;2022-07-31T14:30:46;3.38;;;3.03;;
44636;SDS011;30343;0.000;0.000;2022-07-31T14:33:32;4.38;;;3.08;;
44636;SDS011;30343;0.000;0.000;2022-07-31T14:36:25;3.03;;;2.33;;
44636;SDS011;30343;0.000;0.000;2022-07-31T14:39:09;4.38;;;2.70;;
44636;SDS011;30343;0.000;0.000;2022-07-31T14:41:53;4.53;;;2.35;;
44636;SDS011;30343;0.000;0.000;2022-07-31T14:44:37;3.28;;;2.60;;
44636;SDS011;30343;0.000;0.000;2022-07-31T14:47:24;5.18;;;3.00;;
44636;SDS011;30343;0.000;0.000;2022-07-31T14:50:08;2.45;;;2.15;;
44636;SDS011;30343;0.000;0.000;2022-07-31T14:52:52;5.00;;;2.63;;
44636;SDS011;30343;0.000;0.000;2022-07-31T14:55:42;5.28;;;2.78;;
44636;SDS011;30343;0.000;0.000;2022-07-31T14:58:26;3.55;;;2.42;;
44636;SDS011;30343;0.000;0.000;2022-07-31T15:01:13;4.75;;;2.50;;
44636;SDS011;30343;0.000;0.000;2022-07-31T15:04:00;4.43;;;2.50;;
44636;SDS011;30343;0.000;0.000;2022-07-31T15:06:44;4.38;;;2.70;;
44636;SDS011;30343;0.000;0.000;2022-07-31T15:09:33;5.25;;;2.95;;
44636;SDS011;30343;0.000;0.000;2022-07-31T15:12:17;4.22;;;2.45;;
44636;SDS011;30343;0.000;0.000;2022-07-31T15:15:02;2.72;;;2.00;;
44636;SDS011;30343;0.000;0.000;2022-07-31T15:17:46;3.30;;;2.17;;
44636;SDS011;30343;0.000;0.000;2022-07-31T15:20:36;4.15;;;2.00;;
44636;SDS011;30343;0.000;0.000;2022-07-31T15:23:22;3.17;;;2.03;;
44636;SDS011;30343;0.000;0.000;2022-07-31T15:26:06;2.95;;;2.33;;
44636;SDS011;30343;0.000;0.000;2022-07-31T15:28:51;4.43;;;2.00;;
44636;SDS011;30343;0.000;0.000;2022-07-31T15:31:35;3.00;;;1.80;;
44636;SDS011;30343;0.000;0.000;2022-07-31T15:34:21;3.28;;;2.10;;
44636;SDS011;30343;0.000;0.000;2022-07-31T15:37:08;4.70;;;2.00;;
44636;SDS011;30343;0.000;0.000;2022-07-31T15:39:54;5.95;;;2.20;;
44636;SDS011;30343;0.000;0.000;2022-07-31T15:42:44;3.40;;;2.15;;
44636;SDS011;30343;0.000;0.000;2022-07-31T15:45:28;3.30;;;1.58;;
44636;SDS011;30343;0.000;0.000;2022-07-31T15:48:12;4.97;;;2.15;;
44636;SDS011;30343;0.000;0.000;2022-07-31T15:50:59;7.95;;;2.47;;
44636;SDS011;30343;0.000;0.000;2022-07-31T15:53:46;2.35;;;2.00;;
44636;SDS011;30343;0.000;0.000;2022-07-31T15:56:30;2.72;;;1.55;;
44636;SDS011;30343;0.000;0.000;2022-07-31T15:59:14;2.63;;;1.80;;
44636;SDS011;30343;0.000;0.000;2022-07-31T16:01:57;4.28;;;2.63;;
44636;SDS011;30343;0.000;0.000;2022-07-31T16:04:41;2.17;;;1.90;;
44636;SDS011;30343;0.000;0.000;2022-07-31T16:07:25;2.97;;;1.50;;
44636;SDS011;30343;0.000;0.000;2022-07-31T16:10:14;1.92;;;1.50;;
44636;SDS011;30343;0.000;0.000;2022-07-31T16:13:01;2.83;;;1.70;;
44636;SDS011;30343;0.000;0.000;2022-07-31T16:15:48;3.67;;;1.77;;
44636;SDS011;30343;0.000;0.000;2022-07-31T16:18:35;2.50;;;1.98;;
44636;SDS011;30343;0.000;0.000;2022-07-31T16:21:22;5.82;;;1.88;;
44636;SDS011;30343;0.000;0.000;2022-07-31T16:24:06;2.33;;;1.45;;
44636;SDS011;30343;0.000;0.000;2022-07-31T16:26:52;2.97;;;2.10;;
44636;SDS011;30343;0.000;0.000;2022-07-31T16:29:36;2.00;;;1.60;;
44636;SDS011;30343;0.000;0.000;2022-07-31T16:32:23;2.83;;;1.70;;
44636;SDS011;30343;0.000;0.000;2022-07-31T16:35:08;2.97;;;1.75;;
44636;SDS011;30343;0.000;0.000;2022-07-31T16:37:53;3.60;;;1.75;;
44636;SDS011;30343;0.000;0.000;2022-07-31T16:40:37;6.53;;;2.05;;
44636;SDS011;30343;0.000;0.000;2022-07-31T16:43:21;4.78;;;2.10;;
44636;SDS011;30343;0.000;0.000;2022-07-31T16:46:08;2.03;;;1.83;;
44636;SDS011;30343;0.000;0.000;2022-07-31T16:48:56;2.67;;;1.70;;
44636;SDS011;30343;0.000;0.000;2022-07-31T16:51:40;2.95;;;1.50;;
44636;SDS011;30343;0.000;0.000;2022-07-31T16:54:29;2.08;;;1.60;;
44636;SDS011;30343;0.000;0.000;2022-07-31T16:57:16;1.52;;;1.40;;
44636;SDS011;30343;0.000;0.000;2022-07-31T17:00:04;6.88;;;1.92;;
44636;SDS011;30343;0.000;0.000;2022-07-31T17:02:49;3.10;;;1.90;;
44636;SDS011;30343;0.000;0.000;2022-07-31T17:05:36;4.03;;;1.55;;
44636;SDS011;30343;0.000;0.000;2022-07-31T17:08:20;2.33;;;1.40;;
44636;SDS011;30343;0.000;0.000;2022-07-31T17:11:04;4.35;;;2.17;;
44636;SDS011;30343;0.000;0.000;2022-07-31T17:13:48;1.40;;;1.30;;